sensor_id;sensor_type;location;lat;lon;timestamp;P1;durP1;ratioP1;P2;durP2;ratioP2
37001;SDS011;22913;51.910;8.374;2023-03-31T00:00:07;3.60;;;1.90;;
37001;SDS011;22913;51.910;8.374;2023-03-31T00:02:55;3.13;;;1.60;;
37001;SDS011;22913;51.910;8.374;2023-03-31T00:05:41;4.17;;;2.00;;
37001;SDS011;22913;51.910;8.374;2023-03-31T00:08:30;4.97;;;1.83;;
37001;SDS011;22913;51.910;8.374;2023-03-31T00:11:19;7.67;;;2.00;;
37001;SDS011;22913;51.910;8.374;2023-03-31T00:14:07;6.00;;;1.70;;
37001;SDS011;22913;51.910;8.374;2023-03-31T00:16:54;4.33;;;1.67;;
37001;SDS011;22913;51.910;8.374;2023-03-31T00:19:40;4.50;;;2.03;;
37001;SDS011;22913;51.910;8.374;2023-03-31T00:22:26;3.90;;;1.80;;
37001;SDS011;22913;51.910;8.374;2023-03-31T00:25:12;3.60;;;1.60;;
37001;SDS011;22913;51.910;8.374;2023-03-31T00:27:57;6.47;;;2.13;;
37001;SDS011;22913;51.910;8.374;2023-03-31T00:30:44;5.87;;;2.03;;
37001;SDS011;22913;51.910;8.374;2023-03-31T00:33:31;2.77;;;1.77;;
37001;SDS011;22913;51.910;8.374;2023-03-31T00:36:17;4.13;;;1.97;;
37001;SDS011;22913;51.910;8.374;2023-03-31T00:39:09;4.93;;;1.80;;
37001;SDS011;22913;51.910;8.374;2023-03-31T00:41:55;5.00;;;2.03;;
37001;SDS011;22913;51.910;8.374;2023-03-31T00:48:01;3.57;;;1.77;;
37001;SDS011;22913;51.910;8.374;2023-03-31T00:50:55;5.87;;;1.97;;
37001;SDS011;22913;51.910;8.374;2023-03-31T00:53:45;4.10;;;2.00;;
37001;SDS011;22913;51.910;8.374;2023-03-31T00:56:39;2.83;;;1.77;;
37001;SDS011;22913;51.910;8.374;2023-03-31T00:59:26;4.67;;;1.93;;
37001;SDS011;22913;51.910;8.374;2023-03-31T01:02:14;7.60;;;2.10;;
37001;SDS011;22913;51.910;8.374;2023-03-31T01:05:03;4.90;;;2.13;;
37001;SDS011;22913;51.910;8.374;2023-03-31T01:07:52;4.83;;;2.20;;
37001;SDS011;22913;51.910;8.374;2023-03-31T01:10:40;4.63;;;1.70;;
37001;SDS011;22913;51.910;8.374;2023-03-31T01:13:30;4.03;;;2.10;;
37001;SDS011;22913;51.910;8.374;2023-03-31T01:16:16;6.87;;;2.10;;
37001;SDS011;22913;51.910;8.374;2023-03-31T01:19:02;3.87;;;2.30;;
37001;SDS011;22913;51.910;8.374;2023-03-31T01:21:56;5.47;;;2.23;;
37001;SDS011;22913;51.910;8.374;2023-03-31T01:25:28;3.33;;;2.23;;
37001;SDS011;22913;51.910;8.374;2023-03-31T01:28:33;6.27;;;2.10;;
37001;SDS011;22913;51.910;8.374;2023-03-31T01:31:27;6.90;;;2.10;;
37001;SDS011;22913;51.910;8.374;2023-03-31T01:41:33;4.87;;;2.10;;
37001;SDS011;22913;51.910;8.374;2023-03-31T01:44:28;7.57;;;2.60;;
37001;SDS011;22913;51.910;8.374;2023-03-31T01:47:26;6.60;;;2.63;;
37001;SDS011;22913;51.910;8.374;2023-03-31T01:50:17;5.13;;;2.40;;
37001;SDS011;22913;51.910;8.374;2023-03-31T01:53:11;6.13;;;2.40;;
37001;SDS011;22913;51.910;8.374;2023-03-31T01:56:04;7.43;;;2.47;;
37001;SDS011;22913;51.910;8.374;2023-03-31T01:58:57;4.47;;;2.37;;
37001;SDS011;22913;51.910;8.374;2023-03-31T02:01:46;4.07;;;2.23;;
37001;SDS011;22913;51.910;8.374;2023-03-31T02:04:39;6.57;;;2.50;;
37001;SDS011;22913;51.910;8.374;2023-03-31T02:07:29;6.70;;;2.40;;
37001;SDS011;22913;51.910;8.374;2023-03-31T02:10:18;6.40;;;2.60;;
37001;SDS011;22913;51.910;8.374;2023-03-31T02:13:06;6.30;;;2.13;;
37001;SDS011;22913;51.910;8.374;2023-03-31T02:15:56;6.63;;;2.60;;
37001;SDS011;22913;51.910;8.374;2023-03-31T02:18:45;9.10;;;2.30;;
37001;SDS011;22913;51.910;8.374;2023-03-31T02:21:33;4.87;;;1.73;;
37001;SDS011;22913;51.910;8.374;2023-03-31T02:24:22;4.70;;;1.80;;
37001;SDS011;22913;51.910;8.374;2023-03-31T02:27:11;5.77;;;2.30;;
37001;SDS011;22913;51.910;8.374;2023-03-31T02:30:02;7.83;;;2.10;;
37001;SDS011;22913;51.910;8.374;2023-03-31T02:32:50;6.70;;;2.17;;
37001;SDS011;22913;51.910;8.374;2023-03-31T02:35:36;3.83;;;1.83;;
37001;SDS011;22913;51.910;8.374;2023-03-31T02:38:22;5.07;;;1.93;;
37001;SDS011;22913;51.910;8.374;2023-03-31T02:41:07;4.90;;;2.40;;
37001;SDS011;22913;51.910;8.374;2023-03-31T02:43:53;7.67;;;2.10;;
37001;SDS011;22913;51.910;8.374;2023-03-31T02:46:39;5.07;;;2.00;;
37001;SDS011;22913;51.910;8.374;2023-03-31T02:49:26;3.83;;;1.70;;
37001;SDS011;22913;51.910;8.374;2023-03-31T02:55:23;2.20;;;1.80;;
37001;SDS011;22913;51.910;8.374;2023-03-31T03:01:39;4.40;;;2.03;;
37001;SDS011;22913;51.910;8.374;2023-03-31T03:04:40;3.90;;;2.00;;
37001;SDS011;22913;51.910;8.374;2023-03-31T03:07:38;3.70;;;1.90;;
37001;SDS011;22913;51.910;8.374;2023-03-31T03:10:33;3.97;;;1.90;;
37001;SDS011;22913;51.910;8.374;2023-03-31T03:13:27;6.20;;;2.90;;
37001;SDS011;22913;51.910;8.374;2023-03-31T03:16:20;7.17;;;2.13;;
37001;SDS011;22913;51.910;8.374;2023-03-31T03:19:08;5.10;;;2.27;;
37001;SDS011;22913;51.910;8.374;2023-03-31T03:22:03;4.93;;;2.60;;
37001;SDS011;22913;51.910;8.374;2023-03-31T03:24:48;5.83;;;2.30;;
37001;SDS011;22913;51.910;8.374;2023-03-31T03:27:34;8.23;;;2.93;;
37001;SDS011;22913;51.910;8.374;2023-03-31T03:30:20;6.10;;;2.50;;
37001;SDS011;22913;51.910;8.374;2023-03-31T03:33:05;8.47;;;2.70;;
37001;SDS011;22913;51.910;8.374;2023-03-31T03:35:51;6.70;;;2.20;;
37001;SDS011;22913;51.910;8.374;2023-03-31T03:38:38;7.47;;;2.40;;
37001;SDS011;22913;51.910;8.374;2023-03-31T03:41:23;5.07;;;2.13;;
37001;SDS011;22913;51.910;8.374;2023-03-31T03:44:09;4.43;;;2.03;;
37001;SDS011;22913;51.910;8.374;2023-03-31T03:46:54;5.03;;;2.40;;
37001;SDS011;22913;51.910;8.374;2023-03-31T03:49:40;4.73;;;2.17;;
37001;SDS011;22913;51.910;8.374;2023-03-31T03:52:26;6.43;;;2.47;;
37001;SDS011;22913;51.910;8.374;2023-03-31T03:55:13;5.70;;;2.03;;
37001;SDS011;22913;51.910;8.374;2023-03-31T03:58:00;6.60;;;2.17;;
37001;SDS011;22913;51.910;8.374;2023-03-31T04:00:46;8.27;;;2.57;;
37001;SDS011;22913;51.910;8.374;2023-03-31T04:03:32;6.13;;;2.20;;
37001;SDS011;22913;51.910;8.374;2023-03-31T04:06:17;8.67;;;2.27;;
37001;SDS011;22913;51.910;8.374;2023-03-31T04:09:03;4.03;;;1.77;;
37001;SDS011;22913;51.910;8.374;2023-03-31T04:11:50;6.77;;;2.23;;
37001;SDS011;22913;51.910;8.374;2023-03-31T04:14:35;5.77;;;2.40;;
37001;SDS011;22913;51.910;8.374;2023-03-31T04:17:20;4.33;;;2.10;;
37001;SDS011;22913;51.910;8.374;2023-03-31T04:20:17;5.87;;;2.07;;
37001;SDS011;22913;51.910;8.374;2023-03-31T04:23:02;5.93;;;2.20;;
37001;SDS011;22913;51.910;8.374;2023-03-31T04:25:52;2.83;;;1.90;;
37001;SDS011;22913;51.910;8.374;2023-03-31T04:28:39;6.73;;;2.20;;
37001;SDS011;22913;51.910;8.374;2023-03-31T04:31:29;9.77;;;2.73;;
37001;SDS011;22913;51.910;8.374;2023-03-31T04:34:14;5.13;;;2.10;;
37001;SDS011;22913;51.910;8.374;2023-03-31T04:37:01;5.33;;;2.30;;
37001;SDS011;22913;51.910;8.374;2023-03-31T04:39:47;4.27;;;2.07;;
37001;SDS011;22913;51.910;8.374;2023-03-31T04:42:33;7.10;;;2.23;;
37001;SDS011;22913;51.910;8.374;2023-03-31T04:45:20;5.00;;;2.30;;
37001;SDS011;22913;51.910;8.374;2023-03-31T04:48:06;10.40;;;2.50;;
37001;SDS011;22913;51.910;8.374;2023-03-31T04:50:52;4.27;;;2.40;;
37001;SDS011;22913;51.910;8.374;2023-03-31T04:53:37;4.77;;;1.97;;
37001;SDS011;22913;51.910;8.374;2023-03-31T04:56:23;5.23;;;2.57;;
37001;SDS011;22913;51.910;8.374;2023-03-31T04:59:09;4.30;;;2.67;;
37001;SDS011;22913;51.910;8.374;2023-03-31T05:01:56;6.40;;;2.33;;
37001;SDS011;22913;51.910;8.374;2023-03-31T05:04:42;5.23;;;2.13;;
37001;SDS011;22913;51.910;8.374;2023-03-31T05:07:27;7.13;;;2.40;;
37001;SDS011;22913;51.910;8.374;2023-03-31T05:10:13;5.90;;;2.33;;
37001;SDS011;22913;51.910;8.374;2023-03-31T05:12:59;8.47;;;2.67;;
37001;SDS011;22913;51.910;8.374;2023-03-31T05:15:44;4.53;;;2.30;;
37001;SDS011;22913;51.910;8.374;2023-03-31T05:18:34;6.80;;;2.60;;
37001;SDS011;22913;51.910;8.374;2023-03-31T05:21:20;7.60;;;2.80;;
37001;SDS011;22913;51.910;8.374;2023-03-31T05:24:06;5.17;;;2.67;;
37001;SDS011;22913;51.910;8.374;2023-03-31T05:26:52;8.10;;;2.10;;
37001;SDS011;22913;51.910;8.374;2023-03-31T05:29:38;7.90;;;2.50;;
37001;SDS011;22913;51.910;8.374;2023-03-31T05:32:24;5.90;;;2.83;;
37001;SDS011;22913;51.910;8.374;2023-03-31T05:35:11;6.23;;;2.50;;
37001;SDS011;22913;51.910;8.374;2023-03-31T05:37:57;5.90;;;2.87;;
37001;SDS011;22913;51.910;8.374;2023-03-31T05:40:42;8.03;;;2.70;;
37001;SDS011;22913;51.910;8.374;2023-03-31T05:43:28;9.17;;;2.50;;
37001;SDS011;22913;51.910;8.374;2023-03-31T05:46:14;5.90;;;2.70;;
37001;SDS011;22913;51.910;8.374;2023-03-31T05:49:01;9.03;;;2.30;;
37001;SDS011;22913;51.910;8.374;2023-03-31T05:51:48;5.20;;;2.57;;
37001;SDS011;22913;51.910;8.374;2023-03-31T05:54:34;9.30;;;2.20;;
37001;SDS011;22913;51.910;8.374;2023-03-31T05:57:20;4.93;;;2.20;;
37001;SDS011;22913;51.910;8.374;2023-03-31T06:00:06;6.80;;;2.20;;
37001;SDS011;22913;51.910;8.374;2023-03-31T06:02:54;6.53;;;2.23;;
37001;SDS011;22913;51.910;8.374;2023-03-31T06:05:45;5.73;;;2.17;;
37001;SDS011;22913;51.910;8.374;2023-03-31T06:08:33;5.93;;;2.77;;
37001;SDS011;22913;51.910;8.374;2023-03-31T06:11:20;6.90;;;2.50;;
37001;SDS011;22913;51.910;8.374;2023-03-31T06:14:06;6.20;;;2.67;;
37001;SDS011;22913;51.910;8.374;2023-03-31T06:16:52;6.50;;;2.30;;
37001;SDS011;22913;51.910;8.374;2023-03-31T06:19:38;8.30;;;2.27;;
37001;SDS011;22913;51.910;8.374;2023-03-31T06:22:23;6.20;;;2.20;;
37001;SDS011;22913;51.910;8.374;2023-03-31T06:25:10;6.40;;;2.27;;
37001;SDS011;22913;51.910;8.374;2023-03-31T06:27:56;3.83;;;1.70;;
37001;SDS011;22913;51.910;8.374;2023-03-31T06:30:42;3.93;;;2.13;;
37001;SDS011;22913;51.910;8.374;2023-03-31T06:33:27;7.67;;;2.57;;
37001;SDS011;22913;51.910;8.374;2023-03-31T06:36:13;4.40;;;2.13;;
37001;SDS011;22913;51.910;8.374;2023-03-31T06:39:00;4.43;;;1.70;;
37001;SDS011;22913;51.910;8.374;2023-03-31T06:41:48;7.53;;;2.73;;
37001;SDS011;22913;51.910;8.374;2023-03-31T06:44:33;6.20;;;2.23;;
37001;SDS011;22913;51.910;8.374;2023-03-31T06:47:19;5.07;;;2.30;;
37001;SDS011;22913;51.910;8.374;2023-03-31T06:50:04;6.80;;;2.20;;
37001;SDS011;22913;51.910;8.374;2023-03-31T06:52:51;6.60;;;2.33;;
37001;SDS011;22913;51.910;8.374;2023-03-31T06:55:38;3.70;;;2.17;;
37001;SDS011;22913;51.910;8.374;2023-03-31T06:58:25;5.60;;;2.37;;
37001;SDS011;22913;51.910;8.374;2023-03-31T07:01:10;6.23;;;2.13;;
37001;SDS011;22913;51.910;8.374;2023-03-31T07:03:56;4.53;;;1.93;;
37001;SDS011;22913;51.910;8.374;2023-03-31T07:06:41;4.07;;;2.10;;
37001;SDS011;22913;51.910;8.374;2023-03-31T07:09:27;4.37;;;1.90;;
37001;SDS011;22913;51.910;8.374;2023-03-31T07:12:13;3.07;;;1.90;;
37001;SDS011;22913;51.910;8.374;2023-03-31T07:15:00;3.87;;;2.50;;
37001;SDS011;22913;51.910;8.374;2023-03-31T07:17:45;8.23;;;2.47;;
37001;SDS011;22913;51.910;8.374;2023-03-31T07:20:33;7.60;;;2.20;;
37001;SDS011;22913;51.910;8.374;2023-03-31T07:23:20;5.33;;;2.10;;
37001;SDS011;22913;51.910;8.374;2023-03-31T07:26:06;5.53;;;2.17;;
37001;SDS011;22913;51.910;8.374;2023-03-31T07:28:52;5.77;;;1.90;;
37001;SDS011;22913;51.910;8.374;2023-03-31T07:31:40;5.93;;;1.90;;
37001;SDS011;22913;51.910;8.374;2023-03-31T07:34:26;4.13;;;2.10;;
37001;SDS011;22913;51.910;8.374;2023-03-31T07:37:12;5.53;;;2.13;;
37001;SDS011;22913;51.910;8.374;2023-03-31T07:39:57;5.07;;;2.00;;
37001;SDS011;22913;51.910;8.374;2023-03-31T07:42:43;6.13;;;1.70;;
37001;SDS011;22913;51.910;8.374;2023-03-31T07:45:29;3.90;;;2.10;;
37001;SDS011;22913;51.910;8.374;2023-03-31T07:48:17;4.57;;;1.87;;
37001;SDS011;22913;51.910;8.374;2023-03-31T07:51:03;4.83;;;1.97;;
37001;SDS011;22913;51.910;8.374;2023-03-31T07:53:48;3.57;;;1.50;;
37001;SDS011;22913;51.910;8.374;2023-03-31T07:56:35;4.47;;;2.17;;
37001;SDS011;22913;51.910;8.374;2023-03-31T07:59:20;2.63;;;2.20;;
37001;SDS011;22913;51.910;8.374;2023-03-31T08:02:06;5.07;;;1.80;;
37001;SDS011;22913;51.910;8.374;2023-03-31T08:04:56;4.13;;;2.00;;
37001;SDS011;22913;51.910;8.374;2023-03-31T08:07:42;2.00;;;1.50;;
37001;SDS011;22913;51.910;8.374;2023-03-31T08:10:29;2.43;;;1.43;;
37001;SDS011;22913;51.910;8.374;2023-03-31T08:13:15;2.77;;;1.63;;
37001;SDS011;22913;51.910;8.374;2023-03-31T08:16:00;1.70;;;1.53;;
37001;SDS011;22913;51.910;8.374;2023-03-31T08:18:46;3.53;;;1.70;;
37001;SDS011;22913;51.910;8.374;2023-03-31T08:21:33;4.17;;;1.60;;
37001;SDS011;22913;51.910;8.374;2023-03-31T08:24:19;3.07;;;1.53;;
37001;SDS011;22913;51.910;8.374;2023-03-31T08:27:04;1.30;;;1.17;;
37001;SDS011;22913;51.910;8.374;2023-03-31T08:29:49;1.30;;;1.20;;
37001;SDS011;22913;51.910;8.374;2023-03-31T08:32:35;2.70;;;1.57;;
37001;SDS011;22913;51.910;8.374;2023-03-31T08:35:21;2.30;;;1.73;;
37001;SDS011;22913;51.910;8.374;2023-03-31T08:38:08;2.37;;;1.13;;
37001;SDS011;22913;51.910;8.374;2023-03-31T08:40:57;2.17;;;1.43;;
37001;SDS011;22913;51.910;8.374;2023-03-31T08:43:44;1.33;;;1.23;;
37001;SDS011;22913;51.910;8.374;2023-03-31T08:46:32;2.97;;;1.60;;
37001;SDS011;22913;51.910;8.374;2023-03-31T08:49:19;2.67;;;1.67;;
37001;SDS011;22913;51.910;8.374;2023-03-31T08:52:06;5.30;;;1.43;;
37001;SDS011;22913;51.910;8.374;2023-03-31T08:54:58;2.60;;;1.63;;
37001;SDS011;22913;51.910;8.374;2023-03-31T08:57:49;2.70;;;1.40;;
37001;SDS011;22913;51.910;8.374;2023-03-31T09:00:42;4.67;;;1.40;;
37001;SDS011;22913;51.910;8.374;2023-03-31T09:03:35;3.23;;;1.77;;
37001;SDS011;22913;51.910;8.374;2023-03-31T09:06:31;5.73;;;1.63;;
37001;SDS011;22913;51.910;8.374;2023-03-31T09:09:21;2.77;;;1.23;;
37001;SDS011;22913;51.910;8.374;2023-03-31T09:12:18;3.43;;;1.50;;
37001;SDS011;22913;51.910;8.374;2023-03-31T09:15:08;1.63;;;1.47;;
37001;SDS011;22913;51.910;8.374;2023-03-31T09:17:56;4.83;;;1.63;;
37001;SDS011;22913;51.910;8.374;2023-03-31T09:20:48;4.13;;;1.60;;
37001;SDS011;22913;51.910;8.374;2023-03-31T09:23:37;3.93;;;2.13;;
37001;SDS011;22913;51.910;8.374;2023-03-31T09:26:29;3.57;;;1.80;;
37001;SDS011;22913;51.910;8.374;2023-03-31T09:29:20;7.03;;;1.90;;
37001;SDS011;22913;51.910;8.374;2023-03-31T09:32:13;3.57;;;1.90;;
37001;SDS011;22913;51.910;8.374;2023-03-31T09:35:01;2.80;;;1.53;;
37001;SDS011;22913;51.910;8.374;2023-03-31T09:37:59;3.43;;;1.40;;
37001;SDS011;22913;51.910;8.374;2023-03-31T09:40:45;5.53;;;1.60;;
37001;SDS011;22913;51.910;8.374;2023-03-31T09:43:30;1.40;;;1.20;;
37001;SDS011;22913;51.910;8.374;2023-03-31T09:46:23;4.67;;;1.70;;
37001;SDS011;22913;51.910;8.374;2023-03-31T09:49:13;2.80;;;1.53;;
37001;SDS011;22913;51.910;8.374;2023-03-31T09:52:03;2.43;;;1.57;;
37001;SDS011;22913;51.910;8.374;2023-03-31T09:54:53;2.60;;;1.60;;
37001;SDS011;22913;51.910;8.374;2023-03-31T09:57:42;3.90;;;1.50;;
37001;SDS011;22913;51.910;8.374;2023-03-31T10:00:28;2.30;;;1.47;;
37001;SDS011;22913;51.910;8.374;2023-03-31T10:03:14;1.50;;;1.40;;
37001;SDS011;22913;51.910;8.374;2023-03-31T10:06:01;3.13;;;1.60;;
37001;SDS011;22913;51.910;8.374;2023-03-31T10:08:53;3.37;;;1.40;;
37001;SDS011;22913;51.910;8.374;2023-03-31T10:11:40;2.27;;;1.50;;
37001;SDS011;22913;51.910;8.374;2023-03-31T10:14:39;2.83;;;1.77;;
37001;SDS011;22913;51.910;8.374;2023-03-31T10:17:27;2.20;;;1.73;;
37001;SDS011;22913;51.910;8.374;2023-03-31T10:20:19;3.03;;;1.83;;
37001;SDS011;22913;51.910;8.374;2023-03-31T10:23:15;1.97;;;1.63;;
37001;SDS011;22913;51.910;8.374;2023-03-31T10:26:10;3.90;;;1.60;;
37001;SDS011;22913;51.910;8.374;2023-03-31T10:29:00;4.10;;;1.73;;
37001;SDS011;22913;51.910;8.374;2023-03-31T10:31:46;2.63;;;1.60;;
37001;SDS011;22913;51.910;8.374;2023-03-31T10:34:31;2.77;;;1.53;;
37001;SDS011;22913;51.910;8.374;2023-03-31T10:37:20;3.17;;;1.87;;
37001;SDS011;22913;51.910;8.374;2023-03-31T10:40:12;5.43;;;2.23;;
37001;SDS011;22913;51.910;8.374;2023-03-31T10:43:03;2.17;;;1.80;;
37001;SDS011;22913;51.910;8.374;2023-03-31T10:45:54;3.63;;;2.10;;
37001;SDS011;22913;51.910;8.374;2023-03-31T10:48:42;3.23;;;1.63;;
37001;SDS011;22913;51.910;8.374;2023-03-31T10:51:28;3.70;;;1.83;;
37001;SDS011;22913;51.910;8.374;2023-03-31T10:54:15;3.47;;;1.73;;
37001;SDS011;22913;51.910;8.374;2023-03-31T10:57:01;4.10;;;1.93;;
37001;SDS011;22913;51.910;8.374;2023-03-31T10:59:51;3.40;;;2.00;;
37001;SDS011;22913;51.910;8.374;2023-03-31T11:02:58;3.47;;;1.67;;
37001;SDS011;22913;51.910;8.374;2023-03-31T11:05:55;6.77;;;2.60;;
37001;SDS011;22913;51.910;8.374;2023-03-31T11:08:47;4.37;;;2.10;;
37001;SDS011;22913;51.910;8.374;2023-03-31T11:11:54;4.73;;;2.27;;
37001;SDS011;22913;51.910;8.374;2023-03-31T11:14:49;4.63;;;1.93;;
37001;SDS011;22913;51.910;8.374;2023-03-31T11:17:47;3.80;;;2.43;;
37001;SDS011;22913;51.910;8.374;2023-03-31T11:20:49;5.00;;;2.00;;
37001;SDS011;22913;51.910;8.374;2023-03-31T11:23:40;4.53;;;2.53;;
37001;SDS011;22913;51.910;8.374;2023-03-31T11:26:29;4.93;;;2.37;;
37001;SDS011;22913;51.910;8.374;2023-03-31T11:29:26;4.00;;;2.23;;
37001;SDS011;22913;51.910;8.374;2023-03-31T11:32:25;3.87;;;1.80;;
37001;SDS011;22913;51.910;8.374;2023-03-31T11:35:36;4.10;;;2.07;;
37001;SDS011;22913;51.910;8.374;2023-03-31T11:38:36;5.33;;;2.17;;
37001;SDS011;22913;51.910;8.374;2023-03-31T11:41:38;4.67;;;2.10;;
37001;SDS011;22913;51.910;8.374;2023-03-31T11:44:29;5.07;;;2.50;;
37001;SDS011;22913;51.910;8.374;2023-03-31T11:47:24;6.90;;;2.50;;
37001;SDS011;22913;51.910;8.374;2023-03-31T11:50:15;5.30;;;2.33;;
37001;SDS011;22913;51.910;8.374;2023-03-31T11:53:05;5.50;;;2.53;;
37001;SDS011;22913;51.910;8.374;2023-03-31T11:55:59;8.13;;;3.13;;
37001;SDS011;22913;51.910;8.374;2023-03-31T11:58:48;5.87;;;2.50;;
37001;SDS011;22913;51.910;8.374;2023-03-31T12:01:41;4.60;;;2.10;;
37001;SDS011;22913;51.910;8.374;2023-03-31T12:04:31;4.57;;;2.40;;
37001;SDS011;22913;51.910;8.374;2023-03-31T12:07:21;4.53;;;2.50;;
37001;SDS011;22913;51.910;8.374;2023-03-31T12:10:14;7.73;;;2.83;;
37001;SDS011;22913;51.910;8.374;2023-03-31T12:13:06;6.33;;;2.67;;
37001;SDS011;22913;51.910;8.374;2023-03-31T12:16:01;5.60;;;2.20;;
37001;SDS011;22913;51.910;8.374;2023-03-31T12:18:56;5.87;;;2.53;;
37001;SDS011;22913;51.910;8.374;2023-03-31T12:21:48;6.70;;;2.13;;
37001;SDS011;22913;51.910;8.374;2023-03-31T12:24:36;3.07;;;1.67;;
37001;SDS011;22913;51.910;8.374;2023-03-31T12:27:23;6.43;;;2.03;;
37001;SDS011;22913;51.910;8.374;2023-03-31T12:30:11;3.83;;;1.90;;
37001;SDS011;22913;51.910;8.374;2023-03-31T12:33:00;6.07;;;1.87;;
37001;SDS011;22913;51.910;8.374;2023-03-31T12:35:56;5.07;;;2.17;;
37001;SDS011;22913;51.910;8.374;2023-03-31T12:38:55;5.30;;;2.17;;
37001;SDS011;22913;51.910;8.374;2023-03-31T12:41:57;5.03;;;2.10;;
37001;SDS011;22913;51.910;8.374;2023-03-31T12:44:54;5.53;;;2.30;;
37001;SDS011;22913;51.910;8.374;2023-03-31T12:51:08;7.57;;;3.10;;
37001;SDS011;22913;51.910;8.374;2023-03-31T12:54:07;8.57;;;2.57;;
37001;SDS011;22913;51.910;8.374;2023-03-31T12:57:07;4.77;;;2.00;;
37001;SDS011;22913;51.910;8.374;2023-03-31T13:00:14;7.30;;;2.73;;
37001;SDS011;22913;51.910;8.374;2023-03-31T13:09:47;3.47;;;1.80;;
37001;SDS011;22913;51.910;8.374;2023-03-31T13:12:36;1.87;;;1.47;;
37001;SDS011;22913;51.910;8.374;2023-03-31T13:15:22;4.83;;;2.33;;
37001;SDS011;22913;51.910;8.374;2023-03-31T13:18:12;4.90;;;1.87;;
37001;SDS011;22913;51.910;8.374;2023-03-31T13:21:04;5.87;;;2.07;;
37001;SDS011;22913;51.910;8.374;2023-03-31T13:23:50;7.20;;;2.50;;
37001;SDS011;22913;51.910;8.374;2023-03-31T13:26:39;9.33;;;2.73;;
37001;SDS011;22913;51.910;8.374;2023-03-31T13:29:37;4.70;;;2.00;;
37001;SDS011;22913;51.910;8.374;2023-03-31T13:32:25;2.90;;;1.50;;
37001;SDS011;22913;51.910;8.374;2023-03-31T13:35:13;3.47;;;1.77;;
37001;SDS011;22913;51.910;8.374;2023-03-31T13:38:05;3.97;;;1.40;;
37001;SDS011;22913;51.910;8.374;2023-03-31T13:41:00;3.87;;;1.53;;
37001;SDS011;22913;51.910;8.374;2023-03-31T13:51:09;2.03;;;1.50;;
37001;SDS011;22913;51.910;8.374;2023-03-31T13:54:25;4.87;;;1.97;;
37001;SDS011;22913;51.910;8.374;2023-03-31T14:01:01;3.90;;;1.73;;
37001;SDS011;22913;51.910;8.374;2023-03-31T14:07:30;3.77;;;1.80;;
37001;SDS011;22913;51.910;8.374;2023-03-31T14:10:21;3.83;;;1.67;;
37001;SDS011;22913;51.910;8.374;2023-03-31T14:13:09;4.10;;;2.03;;
37001;SDS011;22913;51.910;8.374;2023-03-31T14:15:56;4.10;;;1.73;;
37001;SDS011;22913;51.910;8.374;2023-03-31T14:18:44;6.40;;;1.87;;
37001;SDS011;22913;51.910;8.374;2023-03-31T14:21:38;5.30;;;2.03;;
37001;SDS011;22913;51.910;8.374;2023-03-31T14:24:31;5.97;;;2.13;;
37001;SDS011;22913;51.910;8.374;2023-03-31T14:27:28;3.50;;;1.60;;
37001;SDS011;22913;51.910;8.374;2023-03-31T14:30:26;3.47;;;1.67;;
37001;SDS011;22913;51.910;8.374;2023-03-31T14:33:21;3.70;;;2.10;;
37001;SDS011;22913;51.910;8.374;2023-03-31T14:36:18;5.00;;;1.90;;
37001;SDS011;22913;51.910;8.374;2023-03-31T14:39:10;5.83;;;2.00;;
37001;SDS011;22913;51.910;8.374;2023-03-31T14:41:58;3.17;;;1.80;;
37001;SDS011;22913;51.910;8.374;2023-03-31T14:44:46;4.73;;;3.40;;
37001;SDS011;22913;51.910;8.374;2023-03-31T14:47:32;5.60;;;2.37;;
37001;SDS011;22913;51.910;8.374;2023-03-31T14:50:18;4.30;;;2.93;;
37001;SDS011;22913;51.910;8.374;2023-03-31T14:53:11;6.77;;;4.13;;
37001;SDS011;22913;51.910;8.374;2023-03-31T14:56:00;7.53;;;3.17;;
37001;SDS011;22913;51.910;8.374;2023-03-31T14:58:51;5.30;;;2.70;;
37001;SDS011;22913;51.910;8.374;2023-03-31T15:01:37;3.53;;;2.10;;
37001;SDS011;22913;51.910;8.374;2023-03-31T15:04:24;3.87;;;2.10;;
37001;SDS011;22913;51.910;8.374;2023-03-31T15:07:13;4.37;;;2.20;;
37001;SDS011;22913;51.910;8.374;2023-03-31T15:10:02;6.70;;;2.20;;
37001;SDS011;22913;51.910;8.374;2023-03-31T15:12:49;3.97;;;2.30;;
37001;SDS011;22913;51.910;8.374;2023-03-31T15:15:35;4.63;;;2.00;;
37001;SDS011;22913;51.910;8.374;2023-03-31T15:18:20;5.73;;;2.40;;
37001;SDS011;22913;51.910;8.374;2023-03-31T15:21:09;5.00;;;2.07;;
37001;SDS011;22913;51.910;8.374;2023-03-31T15:24:04;6.27;;;2.30;;
37001;SDS011;22913;51.910;8.374;2023-03-31T15:26:54;5.07;;;2.73;;
37001;SDS011;22913;51.910;8.374;2023-03-31T15:29:43;4.90;;;2.40;;
37001;SDS011;22913;51.910;8.374;2023-03-31T15:32:33;6.80;;;2.53;;
37001;SDS011;22913;51.910;8.374;2023-03-31T15:35:23;3.70;;;2.27;;
37001;SDS011;22913;51.910;8.374;2023-03-31T15:38:13;6.70;;;2.40;;
37001;SDS011;22913;51.910;8.374;2023-03-31T15:41:01;4.83;;;2.47;;
37001;SDS011;22913;51.910;8.374;2023-03-31T15:43:48;9.83;;;2.53;;
37001;SDS011;22913;51.910;8.374;2023-03-31T15:46:48;5.20;;;2.30;;
37001;SDS011;22913;51.910;8.374;2023-03-31T15:49:48;3.73;;;1.93;;
37001;SDS011;22913;51.910;8.374;2023-03-31T15:52:36;5.43;;;2.53;;
37001;SDS011;22913;51.910;8.374;2023-03-31T15:55:24;5.30;;;2.50;;
37001;SDS011;22913;51.910;8.374;2023-03-31T15:58:15;6.13;;;2.67;;
37001;SDS011;22913;51.910;8.374;2023-03-31T16:01:02;4.63;;;2.67;;
37001;SDS011;22913;51.910;8.374;2023-03-31T16:03:51;3.77;;;2.50;;
37001;SDS011;22913;51.910;8.374;2023-03-31T16:06:39;5.20;;;2.47;;
37001;SDS011;22913;51.910;8.374;2023-03-31T16:09:30;4.40;;;2.17;;
37001;SDS011;22913;51.910;8.374;2023-03-31T16:12:26;3.83;;;2.47;;
37001;SDS011;22913;51.910;8.374;2023-03-31T16:15:15;7.43;;;4.13;;
37001;SDS011;22913;51.910;8.374;2023-03-31T16:18:04;4.37;;;2.50;;
37001;SDS011;22913;51.910;8.374;2023-03-31T16:20:53;4.47;;;2.37;;
37001;SDS011;22913;51.910;8.374;2023-03-31T16:23:41;4.67;;;2.10;;
37001;SDS011;22913;51.910;8.374;2023-03-31T16:26:28;4.97;;;2.17;;
37001;SDS011;22913;51.910;8.374;2023-03-31T16:29:18;4.17;;;2.20;;
37001;SDS011;22913;51.910;8.374;2023-03-31T16:32:06;5.07;;;2.33;;
37001;SDS011;22913;51.910;8.374;2023-03-31T16:34:57;3.57;;;2.90;;
37001;SDS011;22913;51.910;8.374;2023-03-31T16:37:43;6.50;;;2.80;;
37001;SDS011;22913;51.910;8.374;2023-03-31T16:40:30;4.43;;;2.57;;
37001;SDS011;22913;51.910;8.374;2023-03-31T16:43:20;4.30;;;2.40;;
37001;SDS011;22913;51.910;8.374;2023-03-31T16:46:07;6.20;;;3.17;;
37001;SDS011;22913;51.910;8.374;2023-03-31T16:48:53;6.27;;;2.70;;
37001;SDS011;22913;51.910;8.374;2023-03-31T16:51:40;6.20;;;2.40;;
37001;SDS011;22913;51.910;8.374;2023-03-31T16:54:26;5.00;;;2.90;;
37001;SDS011;22913;51.910;8.374;2023-03-31T16:57:11;7.27;;;3.07;;
37001;SDS011;22913;51.910;8.374;2023-03-31T16:59:58;5.93;;;3.90;;
37001;SDS011;22913;51.910;8.374;2023-03-31T17:02:44;4.00;;;2.10;;
37001;SDS011;22913;51.910;8.374;2023-03-31T17:05:30;4.67;;;2.20;;
37001;SDS011;22913;51.910;8.374;2023-03-31T17:08:18;7.20;;;2.77;;
37001;SDS011;22913;51.910;8.374;2023-03-31T17:11:05;3.27;;;2.30;;
37001;SDS011;22913;51.910;8.374;2023-03-31T17:13:54;2.90;;;1.57;;
37001;SDS011;22913;51.910;8.374;2023-03-31T17:16:40;3.77;;;1.90;;
37001;SDS011;22913;51.910;8.374;2023-03-31T17:19:25;4.10;;;2.07;;
37001;SDS011;22913;51.910;8.374;2023-03-31T17:22:11;5.40;;;1.90;;
37001;SDS011;22913;51.910;8.374;2023-03-31T17:24:58;5.20;;;1.97;;
37001;SDS011;22913;51.910;8.374;2023-03-31T17:27:44;3.47;;;2.20;;
37001;SDS011;22913;51.910;8.374;2023-03-31T17:30:30;8.13;;;2.40;;
37001;SDS011;22913;51.910;8.374;2023-03-31T17:33:19;4.37;;;2.13;;
37001;SDS011;22913;51.910;8.374;2023-03-31T17:36:05;5.97;;;2.70;;
37001;SDS011;22913;51.910;8.374;2023-03-31T17:38:51;5.00;;;2.50;;
37001;SDS011;22913;51.910;8.374;2023-03-31T17:41:38;5.00;;;2.60;;